createdAt,value
2022-09-22T00:01:31.453Z,51.68
2022-09-22T00:04:03.346Z,51.41
2022-09-22T00:06:38.724Z,51.57
2022-09-22T00:09:09.773Z,51.35
2022-09-22T00:11:42.370Z,51.07
2022-09-22T00:14:13.005Z,51.34
2022-09-22T00:16:44.921Z,51.31
2022-09-22T00:19:15.935Z,51.03
2022-09-22T00:21:45.527Z,50.97
2022-09-22T00:24:13.192Z,50.70
2022-09-22T00:26:40.635Z,51.20
2022-09-22T00:29:09.759Z,51.03
2022-09-22T00:31:38.955Z,50.80
2022-09-22T00:34:07.827Z,50.82
2022-09-22T00:36:35.196Z,50.97
2022-09-22T00:39:04.045Z,51.27
2022-09-22T00:41:36.282Z,51.92
2022-09-22T00:44:38.509Z,52.46
2022-09-22T00:47:31.547Z,52.34
2022-09-22T00:50:10.152Z,52.07
2022-09-22T00:52:43.403Z,52.63
2022-09-22T00:55:18.760Z,52.50
2022-09-22T00:57:47.572Z,52.90
2022-09-22T01:00:15.918Z,53.05
2022-09-22T01:02:48.410Z,52.36
2022-09-22T01:05:16.430Z,52.47
2022-09-22T01:07:44.437Z,52.91
2022-09-22T01:10:13.231Z,53.00
2022-09-22T01:12:59.279Z,53.02
2022-09-22T01:15:38.021Z,52.99
2022-09-22T01:18:20.831Z,52.73
2022-09-22T01:21:20.376Z,52.30
2022-09-22T01:24:28.951Z,52.14
2022-09-22T01:27:49.645Z,51.47
2022-09-22T01:30:24.901Z,52.18
2022-09-22T01:33:22.828Z,51.81
2022-09-22T01:36:06.799Z,52.34
2022-09-22T01:38:42.802Z,52.26
2022-09-22T01:41:19.223Z,52.55
2022-09-22T01:43:54.364Z,52.63
2022-09-22T01:46:31.094Z,52.71
2022-09-22T01:49:07.593Z,53.19
2022-09-22T01:51:43.013Z,53.33
2022-09-22T01:54:18.161Z,53.33
2022-09-22T01:56:54.794Z,53.72
2022-09-22T01:59:28.433Z,53.59
2022-09-22T02:02:03.556Z,53.63
2022-09-22T02:04:38.599Z,53.72
2022-09-22T02:07:11.268Z,54.32
2022-09-22T02:09:42.254Z,54.40
2022-09-22T02:12:09.715Z,54.26
2022-09-22T02:14:37.072Z,53.79
2022-09-22T02:17:05.820Z,53.47
2022-09-22T02:19:37.786Z,53.35
2022-09-22T02:22:07.009Z,53.50
2022-09-22T02:24:38.110Z,52.91
2022-09-22T02:27:10.685Z,53.31
2022-09-22T02:29:42.767Z,53.23
2022-09-22T02:32:16.205Z,53.32
2022-09-22T02:34:45.751Z,53.28
2022-09-22T02:37:26.010Z,53.01
2022-09-22T02:40:07.221Z,53.20
2022-09-22T02:42:42.868Z,52.96
2022-09-22T02:45:17.210Z,53.12
2022-09-22T02:47:52.485Z,52.88
2022-09-22T02:50:25.420Z,53.40
2022-09-22T02:52:58.902Z,53.88
2022-09-22T02:55:26.156Z,54.10
2022-09-22T02:57:54.431Z,54.13
2022-09-22T03:00:22.709Z,54.22
2022-09-22T03:02:51.324Z,54.68
2022-09-22T03:05:18.755Z,54.60
2022-09-22T03:07:45.993Z,54.88
2022-09-22T03:10:13.305Z,54.77
2022-09-22T03:13:09.120Z,54.70
2022-09-22T03:15:31.444Z,55.25
2022-09-22T03:18:00.208Z,54.84
2022-09-22T03:20:27.533Z,54.74
2022-09-22T03:22:54.790Z,54.35
2022-09-22T03:25:22.054Z,54.48
2022-09-22T03:27:49.390Z,54.15
2022-09-22T03:30:16.833Z,54.41
2022-09-22T03:32:44.333Z,54.80
2022-09-22T03:35:13.095Z,54.93
2022-09-22T03:37:40.385Z,54.80
2022-09-22T03:40:08.368Z,55.27
2022-09-22T03:42:35.987Z,55.16
2022-09-22T03:45:04.395Z,55.19
2022-09-22T03:47:32.318Z,54.84
2022-09-22T03:49:59.548Z,54.79
2022-09-22T03:52:28.150Z,54.75
2022-09-22T03:54:55.587Z,54.68
2022-09-22T03:57:22.975Z,54.92
2022-09-22T03:59:50.515Z,55.17
2022-09-22T04:02:18.452Z,54.81
2022-09-22T04:04:45.979Z,54.39
2022-09-22T04:07:13.198Z,54.37
2022-09-22T04:09:42.031Z,54.37
2022-09-22T04:12:09.805Z,54.66
2022-09-22T04:14:37.162Z,54.46
2022-09-22T04:17:05.239Z,55.09
2022-09-22T04:19:35.589Z,54.51
2022-09-22T04:22:03.252Z,54.87
2022-09-22T04:24:30.777Z,54.94
2022-09-22T04:27:19.122Z,54.79
2022-09-22T04:29:46.645Z,55.39
2022-09-22T04:32:14.522Z,55.31
2022-09-22T04:34:42.882Z,54.91
2022-09-22T04:37:10.526Z,55.11
2022-09-22T04:39:38.106Z,54.87
2022-09-22T04:42:09.061Z,54.37
2022-09-22T04:44:36.462Z,54.32
2022-09-22T04:47:04.393Z,54.34
2022-09-22T04:49:31.619Z,54.47
2022-09-22T04:51:59.182Z,54.91
2022-09-22T04:54:26.475Z,55.10
2022-09-22T04:56:55.642Z,54.85
2022-09-22T04:59:24.345Z,54.76
2022-09-22T05:01:51.573Z,55.04
2022-09-22T05:04:18.880Z,55.20
2022-09-22T05:06:46.997Z,55.16
2022-09-22T05:09:14.666Z,55.22
2022-09-22T05:11:41.903Z,55.28
2022-09-22T05:14:09.175Z,55.56
2022-09-22T05:16:37.881Z,55.97
2022-09-22T05:19:05.226Z,56.34
2022-09-22T05:21:32.529Z,56.60
2022-09-22T05:24:00.846Z,56.48
2022-09-22T05:26:28.328Z,57.22
2022-09-22T05:28:56.101Z,57.47
2022-09-22T05:31:23.814Z,57.77
2022-09-22T05:33:52.787Z,57.81
2022-09-22T05:36:20.376Z,57.89
2022-09-22T05:38:47.752Z,57.98
2022-09-22T05:41:15.060Z,57.83
2022-09-22T05:43:42.370Z,57.80
2022-09-22T05:46:09.764Z,58.21
2022-09-22T05:48:37.076Z,58.30
2022-09-22T05:51:05.718Z,57.63
2022-09-22T05:53:33.017Z,57.15
2022-09-22T05:56:00.765Z,57.50
2022-09-22T05:58:28.105Z,57.18
2022-09-22T06:00:58.097Z,57.09
2022-09-22T06:03:25.863Z,56.88
2022-09-22T06:05:56.271Z,56.78
2022-09-22T06:08:24.956Z,57.08
2022-09-22T06:10:52.772Z,57.18
2022-09-22T06:13:20.095Z,57.25
2022-09-22T06:15:50.221Z,57.57
2022-09-22T06:18:23.480Z,57.41
2022-09-22T06:20:52.520Z,57.73
2022-09-22T06:23:19.849Z,58.04
2022-09-22T06:25:48.570Z,57.59
2022-09-22T06:28:16.517Z,57.35
2022-09-22T06:30:43.836Z,56.61
2022-09-22T06:33:11.818Z,56.61
2022-09-22T06:35:42.923Z,55.72
2022-09-22T06:38:15.087Z,55.10
2022-09-22T06:40:43.473Z,55.38
2022-09-22T06:43:20.413Z,55.40
2022-09-22T06:45:47.733Z,55.16
2022-09-22T06:48:15.160Z,55.25
2022-09-22T06:50:48.553Z,54.93
2022-09-22T06:53:16.189Z,53.88
2022-09-22T06:55:43.973Z,53.60
2022-09-22T06:58:13.917Z,52.71
2022-09-22T07:00:43.548Z,50.78
2022-09-22T07:03:20.962Z,49.01
2022-09-22T07:05:56.539Z,47.32
2022-09-22T07:08:25.382Z,45.39
2022-09-22T07:10:55.039Z,44.39
2022-09-22T07:13:24.131Z,43.43
2022-09-22T07:15:51.719Z,43.04
2022-09-22T07:18:18.976Z,42.22
2022-09-22T07:20:46.250Z,42.30
2022-09-22T07:23:18.283Z,41.27
2022-09-22T07:25:56.337Z,40.65
2022-09-22T07:28:28.359Z,40.02
2022-09-22T07:30:59.018Z,38.78
2022-09-22T07:33:26.935Z,38.88
2022-09-22T07:36:02.948Z,38.74
2022-09-22T07:38:33.625Z,39.29
2022-09-22T07:41:01.434Z,40.27
2022-09-22T07:43:30.524Z,40.64
2022-09-22T07:45:58.175Z,40.72
2022-09-22T07:48:36.390Z,41.78
2022-09-22T07:51:05.702Z,42.57
2022-09-22T07:53:33.553Z,42.44
2022-09-22T07:56:06.302Z,42.66
2022-09-22T07:58:35.048Z,42.78
2022-09-22T08:01:07.997Z,43.13
2022-09-22T08:03:43.776Z,43.39
2022-09-22T08:06:12.720Z,43.32
2022-09-22T08:08:42.584Z,42.78
2022-09-22T08:11:13.286Z,43.04
2022-09-22T08:13:44.238Z,41.96
2022-09-22T08:16:12.118Z,39.67
2022-09-22T08:18:42.127Z,38.87
2022-09-22T08:21:09.511Z,35.80
2022-09-22T08:23:39.934Z,34.07
2022-09-22T08:26:11.749Z,33.62
2022-09-22T08:28:39.019Z,32.75
2022-09-22T08:31:13.211Z,31.09
2022-09-22T08:33:40.940Z,29.65
2022-09-22T08:36:09.425Z,27.76
2022-09-22T08:38:37.931Z,26.92
2022-09-22T08:41:21.538Z,26.24
2022-09-22T08:43:55.315Z,26.36
2022-09-22T08:46:31.662Z,25.59
2022-09-22T08:49:27.411Z,24.56
2022-09-22T08:52:05.411Z,24.16
2022-09-22T08:54:33.223Z,23.26
2022-09-22T08:57:32.724Z,23.38
2022-09-22T09:00:06.389Z,22.00
2022-09-22T09:02:51.811Z,21.64
2022-09-22T09:06:07.422Z,22.15
2022-09-22T09:09:23.394Z,20.91
2022-09-22T09:12:11.290Z,20.54
2022-09-22T09:15:09.662Z,19.67
2022-09-22T09:17:45.973Z,20.01
2022-09-22T09:20:18.624Z,18.85
2022-09-22T09:22:55.675Z,19.42
2022-09-22T09:25:36.813Z,18.63
2022-09-22T09:28:13.396Z,17.92
2022-09-22T09:30:47.470Z,18.02
2022-09-22T09:33:30.014Z,17.97
2022-09-22T09:35:58.676Z,17.31
2022-09-22T09:38:35.453Z,17.42
2022-09-22T09:41:14.643Z,16.27
2022-09-22T09:43:45.581Z,16.73
2022-09-22T09:46:29.849Z,16.98
2022-09-22T09:49:14.436Z,17.07
2022-09-22T09:51:46.639Z,16.83
2022-09-22T09:54:18.071Z,17.68
2022-09-22T09:57:10.806Z,17.26
2022-09-22T09:59:59.374Z,16.50
2022-09-22T10:02:31.730Z,16.80
2022-09-22T10:05:04.568Z,16.39
2022-09-22T10:07:44.132Z,16.29
2022-09-22T10:10:33.978Z,16.24
2022-09-22T10:13:26.369Z,16.45
2022-09-22T10:16:30.743Z,17.82
2022-09-22T10:19:22.818Z,17.80
2022-09-22T10:21:51.749Z,18.46
2022-09-22T10:24:31.871Z,19.54
2022-09-22T10:27:02.430Z,20.68
2022-09-22T10:29:32.832Z,21.19
2022-09-22T10:32:05.460Z,22.60
2022-09-22T10:34:36.653Z,23.27
2022-09-22T10:37:10.535Z,23.38
2022-09-22T10:39:46.042Z,24.21
2022-09-22T10:42:33.475Z,25.02
2022-09-22T10:45:12.854Z,25.57
2022-09-22T10:47:56.564Z,26.28
2022-09-22T10:50:59.254Z,27.10
2022-09-22T10:54:08.827Z,27.49
2022-09-22T10:56:42.824Z,27.61
2022-09-22T10:59:44.926Z,28.62
2022-09-22T11:02:59.940Z,28.95
2022-09-22T11:06:06.354Z,29.32
2022-09-22T11:09:16.215Z,29.11
2022-09-22T11:12:14.975Z,29.60
2022-09-22T11:15:13.804Z,29.47
2022-09-22T11:18:24.985Z,30.21
2022-09-22T11:21:06.210Z,30.32
2022-09-22T11:24:08.410Z,30.40
2022-09-22T11:26:48.999Z,30.07
2022-09-22T11:30:02.389Z,28.91
2022-09-22T11:32:57.852Z,28.08
2022-09-22T11:35:56.953Z,28.63
2022-09-22T11:39:07.562Z,28.58
2022-09-22T11:41:43.766Z,28.62
2022-09-22T11:44:43.377Z,27.16
2022-09-22T11:47:37.565Z,27.50
2022-09-22T11:50:39.630Z,27.90
2022-09-22T11:53:28.969Z,28.31
2022-09-22T11:56:29.082Z,29.05
2022-09-22T11:59:05.188Z,29.16
2022-09-22T12:01:39.050Z,28.53
2022-09-22T12:04:21.325Z,28.46
2022-09-22T12:06:56.000Z,26.92
2022-09-22T12:09:36.891Z,27.80
2022-09-22T12:12:18.346Z,27.66
2022-09-22T12:14:56.657Z,28.23
2022-09-22T12:17:36.135Z,28.78
2022-09-22T12:20:22.104Z,28.43
2022-09-22T12:23:18.001Z,28.08
2022-09-22T12:25:56.834Z,27.86
2022-09-22T12:28:28.713Z,27.60
2022-09-22T12:31:05.554Z,28.05
2022-09-22T12:33:37.386Z,27.49
2022-09-22T12:36:06.931Z,27.17
2022-09-22T12:38:35.041Z,26.11
2022-09-22T12:41:04.370Z,27.39
2022-09-22T12:43:38.059Z,27.57
2022-09-22T12:46:24.077Z,27.93
2022-09-22T12:48:52.209Z,28.09
2022-09-22T12:51:33.765Z,28.31
2022-09-22T12:54:47.196Z,28.22
2022-09-22T12:57:28.829Z,28.53
2022-09-22T13:00:23.931Z,27.91
2022-09-22T13:02:52.895Z,28.82
2022-09-22T13:05:35.938Z,27.79
2022-09-22T13:08:04.200Z,28.28
2022-09-22T13:11:00.521Z,27.79
2022-09-22T13:13:44.697Z,26.39
2022-09-22T13:16:34.909Z,26.26
2022-09-22T13:19:04.275Z,26.30
2022-09-22T13:21:36.902Z,27.04
2022-09-22T13:24:18.638Z,26.98
2022-09-22T13:26:46.023Z,27.47
2022-09-22T13:29:16.327Z,27.15
2022-09-22T13:31:47.713Z,27.29
2022-09-22T13:34:27.839Z,25.37
2022-09-22T13:37:00.526Z,25.07
2022-09-22T13:39:33.106Z,24.89
2022-09-22T13:42:08.404Z,25.06
2022-09-22T13:44:42.461Z,24.90
2022-09-22T13:47:19.528Z,25.39
2022-09-22T13:49:51.780Z,25.77
2022-09-22T13:52:24.789Z,26.15
2022-09-22T13:54:57.478Z,25.96
2022-09-22T13:57:30.350Z,25.84
2022-09-22T14:00:05.089Z,26.44
2022-09-22T14:02:34.587Z,26.49
2022-09-22T14:05:07.991Z,26.16
2022-09-22T14:07:49.464Z,26.79
2022-09-22T14:10:27.891Z,26.12
2022-09-22T14:12:55.959Z,26.26
2022-09-22T14:15:49.902Z,26.30
2022-09-22T14:18:28.107Z,27.23
2022-09-22T14:20:59.647Z,27.60
2022-09-22T14:23:53.828Z,27.68
2022-09-22T14:26:33.621Z,28.06
2022-09-22T14:29:15.303Z,27.89
2022-09-22T14:31:54.135Z,28.34
2022-09-22T14:34:34.471Z,28.53
2022-09-22T14:37:20.656Z,28.68
2022-09-22T14:40:03.442Z,28.86
2022-09-22T14:42:34.161Z,28.83
2022-09-22T14:45:21.161Z,28.94
2022-09-22T14:48:15.826Z,29.01
2022-09-22T14:53:49.501Z,29.01
2022-09-22T14:56:30.099Z,28.69
2022-09-22T14:59:25.638Z,28.78
2022-09-22T15:02:13.692Z,28.40
2022-09-22T15:04:48.669Z,28.30
2022-09-22T15:07:26.692Z,28.46
2022-09-22T15:09:59.476Z,28.80
2022-09-22T15:12:40.434Z,28.64
2022-09-22T15:15:21.594Z,28.38
2022-09-22T15:18:09.059Z,28.64
2022-09-22T15:20:42.813Z,28.34
2022-09-22T15:23:23.080Z,28.52
2022-09-22T15:25:52.161Z,28.98
2022-09-22T15:28:23.764Z,28.63
2022-09-22T15:30:52.737Z,28.71
2022-09-22T15:33:21.560Z,28.94
2022-09-22T15:35:55.295Z,28.67
2022-09-22T15:38:27.848Z,28.99
2022-09-22T15:40:55.509Z,29.08
2022-09-22T15:43:24.390Z,28.64
2022-09-22T15:45:58.249Z,28.63
2022-09-22T15:48:31.116Z,28.60
2022-09-22T15:51:04.731Z,28.68
2022-09-22T15:53:34.578Z,28.87
2022-09-22T15:56:07.045Z,29.01
2022-09-22T15:58:39.097Z,28.98
2022-09-22T16:01:07.919Z,29.52
2022-09-22T16:03:41.282Z,29.57
2022-09-22T16:06:14.090Z,29.59
2022-09-22T16:08:48.152Z,29.96
2022-09-22T16:11:18.734Z,30.31
2022-09-22T16:13:46.159Z,30.38
2022-09-22T16:16:13.588Z,30.39
2022-09-22T16:18:41.907Z,30.46
2022-09-22T16:21:29.365Z,30.58
2022-09-22T16:24:11.201Z,30.75
2022-09-22T16:26:40.209Z,30.71
2022-09-22T16:29:08.567Z,31.05
2022-09-22T16:31:37.400Z,30.82
2022-09-22T16:34:06.711Z,30.88
2022-09-22T16:36:36.421Z,31.16
2022-09-22T16:39:05.726Z,31.59
2022-09-22T16:41:35.340Z,31.83
2022-09-22T16:44:04.537Z,32.01
2022-09-22T16:46:35.049Z,32.54
2022-09-22T16:49:05.271Z,32.46
2022-09-22T16:51:35.497Z,32.75
2022-09-22T16:54:07.433Z,32.63
2022-09-22T16:56:37.858Z,33.49
2022-09-22T16:59:06.330Z,33.24
2022-09-22T17:01:37.697Z,33.54
2022-09-22T17:04:07.265Z,33.90
2022-09-22T17:06:38.205Z,33.96
2022-09-22T17:09:09.290Z,34.35
2022-09-22T17:11:40.178Z,34.41
2022-09-22T17:14:12.504Z,34.18
2022-09-22T17:16:44.937Z,34.83
2022-09-22T17:19:18.477Z,35.05
2022-09-22T17:21:47.725Z,34.98
2022-09-22T17:24:16.913Z,35.68
2022-09-22T17:26:47.842Z,35.35
2022-09-22T17:29:17.034Z,35.20
2022-09-22T17:31:48.188Z,36.00
2022-09-22T17:34:15.810Z,35.33
2022-09-22T17:36:43.476Z,35.76
2022-09-22T17:39:11.743Z,35.86
2022-09-22T17:41:47.002Z,36.22
2022-09-22T17:44:18.194Z,36.35
2022-09-22T17:47:04.271Z,36.12
2022-09-22T17:49:50.167Z,36.50
2022-09-22T17:52:29.930Z,37.05
2022-09-22T17:55:07.446Z,36.84
2022-09-22T17:57:38.616Z,36.80
2022-09-22T18:00:09.854Z,36.91
2022-09-22T18:02:37.339Z,37.28
2022-09-22T18:05:06.778Z,37.80
2022-09-22T18:07:40.147Z,37.77
2022-09-22T18:10:10.925Z,37.63
2022-09-22T18:12:41.283Z,38.18
2022-09-22T18:15:13.170Z,38.16
2022-09-22T18:17:42.844Z,37.73
2022-09-22T18:20:12.626Z,38.25
2022-09-22T18:22:41.422Z,38.04
2022-09-22T18:25:11.353Z,37.99
2022-09-22T18:27:40.407Z,38.65
2022-09-22T18:30:12.190Z,38.71
2022-09-22T18:32:42.748Z,38.43
2022-09-22T18:35:12.763Z,38.92
2022-09-22T18:37:40.498Z,39.02
2022-09-22T18:40:10.134Z,38.99
2022-09-22T18:42:38.903Z,39.27
2022-09-22T18:45:07.799Z,39.09
2022-09-22T18:47:39.630Z,39.02
2022-09-22T18:50:08.253Z,39.14
2022-09-22T18:52:36.743Z,39.25
2022-09-22T18:55:05.244Z,39.85
2022-09-22T18:57:32.529Z,39.78
2022-09-22T19:00:01.643Z,40.13
2022-09-22T19:02:30.238Z,39.65
2022-09-22T19:04:57.621Z,40.22
2022-09-22T19:07:43.605Z,40.35
2022-09-22T19:10:14.721Z,40.37
2022-09-22T19:12:42.709Z,40.26
2022-09-22T19:15:18.145Z,40.69
2022-09-22T19:17:48.437Z,40.66
2022-09-22T19:20:20.390Z,40.64
2022-09-22T19:22:49.268Z,41.12
2022-09-22T19:25:17.372Z,40.90
2022-09-22T19:27:44.747Z,40.81
2022-09-22T19:30:14.385Z,41.21
2022-09-22T19:32:41.901Z,41.13
2022-09-22T19:35:09.854Z,41.40
2022-09-22T19:37:38.107Z,41.10
2022-09-22T19:40:08.515Z,41.41
2022-09-22T19:42:40.064Z,41.32
2022-09-22T19:45:08.513Z,41.68
2022-09-22T19:47:37.740Z,41.75
2022-09-22T19:50:07.952Z,41.32
2022-09-22T19:52:35.980Z,41.98
2022-09-22T19:55:03.916Z,41.95
2022-09-22T19:57:32.014Z,42.06
2022-09-22T19:59:59.351Z,42.16
2022-09-22T20:02:26.681Z,42.55
2022-09-22T20:04:55.959Z,42.34
2022-09-22T20:07:27.722Z,42.51
2022-09-22T20:09:57.668Z,42.65
2022-09-22T20:12:24.944Z,42.57
2022-09-22T20:14:53.306Z,42.97
2022-09-22T20:17:20.598Z,43.03
2022-09-22T20:19:47.859Z,42.74
2022-09-22T20:22:25.234Z,42.73
2022-09-22T20:24:57.168Z,43.23
2022-09-22T20:27:27.119Z,43.16
2022-09-22T20:29:57.428Z,43.09
2022-09-22T20:32:27.126Z,43.17
2022-09-22T20:34:55.765Z,43.35
2022-09-22T20:37:25.003Z,43.13
2022-09-22T20:39:52.974Z,43.31
2022-09-22T20:42:20.878Z,43.40
2022-09-22T20:44:49.163Z,43.55
2022-09-22T20:47:18.956Z,43.58
2022-09-22T20:49:51.619Z,43.74
2022-09-22T20:52:21.071Z,43.82
2022-09-22T20:54:50.093Z,43.83
2022-09-22T20:57:17.896Z,43.79
2022-09-22T20:59:45.786Z,44.08
2022-09-22T21:02:15.249Z,44.13
2022-09-22T21:04:42.899Z,44.08
2022-09-22T21:07:11.655Z,44.15
2022-09-22T21:09:58.246Z,44.18
2022-09-22T21:12:31.280Z,44.40
2022-09-22T21:14:59.503Z,44.29
2022-09-22T21:17:32.925Z,44.49
2022-09-22T21:20:00.607Z,44.70
2022-09-22T21:22:28.299Z,44.48
2022-09-22T21:24:56.434Z,44.86
2022-09-22T21:27:25.017Z,44.62
2022-09-22T21:29:53.971Z,44.52
2022-09-22T21:32:21.481Z,44.68
2022-09-22T21:34:49.030Z,45.08
2022-09-22T21:37:16.622Z,45.01
2022-09-22T21:39:44.155Z,44.90
2022-09-22T21:42:11.675Z,44.97
2022-09-22T21:44:39.191Z,45.16
2022-09-22T21:47:08.142Z,45.03
2022-09-22T21:49:35.486Z,45.27
2022-09-22T21:52:03.297Z,45.25
2022-09-22T21:54:31.102Z,45.20
2022-09-22T21:56:58.438Z,45.23
2022-09-22T21:59:25.746Z,45.35
2022-09-22T22:01:53.081Z,45.19
2022-09-22T22:04:21.818Z,45.43
2022-09-22T22:06:49.146Z,45.48
2022-09-22T22:09:19.069Z,45.42
2022-09-22T22:11:49.593Z,45.30
2022-09-22T22:14:22.318Z,45.42
2022-09-22T22:16:52.182Z,45.50
2022-09-22T22:19:23.098Z,45.84
2022-09-22T22:21:51.657Z,45.85
2022-09-22T22:24:30.452Z,45.83
2022-09-22T22:27:01.403Z,46.03
2022-09-22T22:29:34.725Z,46.28
2022-09-22T22:32:05.023Z,46.17
2022-09-22T22:34:33.738Z,46.15
2022-09-22T22:37:01.168Z,46.27
2022-09-22T22:39:29.892Z,46.11
2022-09-22T22:41:57.276Z,46.37
2022-09-22T22:44:24.646Z,46.51
2022-09-22T22:46:51.923Z,46.47
2022-09-22T22:49:19.669Z,46.54
2022-09-22T22:51:49.409Z,46.74
2022-09-22T22:54:16.901Z,46.77
2022-09-22T22:56:46.814Z,46.65
2022-09-22T22:59:18.139Z,46.93
2022-09-22T23:01:45.542Z,46.77
2022-09-22T23:04:13.107Z,46.96
2022-09-22T23:06:44.508Z,46.83
2022-09-22T23:09:16.779Z,47.29
2022-09-22T23:11:45.807Z,47.12
2022-09-22T23:14:15.897Z,47.24
2022-09-22T23:16:46.741Z,47.30
2022-09-22T23:19:17.300Z,47.22
2022-09-22T23:21:45.395Z,47.56
2022-09-22T23:24:16.923Z,47.40
2022-09-22T23:26:45.024Z,47.59
2022-09-22T23:29:12.585Z,47.45
2022-09-22T23:31:39.820Z,47.71
2022-09-22T23:34:07.066Z,47.77
2022-09-22T23:36:34.561Z,47.74
2022-09-22T23:39:04.368Z,47.58
2022-09-22T23:41:35.724Z,48.04
2022-09-22T23:44:03.882Z,48.05
2022-09-22T23:46:31.786Z,48.17
2022-09-22T23:49:00.108Z,48.19
2022-09-22T23:51:28.355Z,48.17
2022-09-22T23:53:56.320Z,48.22
2022-09-22T23:56:24.703Z,48.31
2022-09-22T23:58:53.554Z,48.15
